createdAt,value
2023-04-26T00:00:48.901Z,6.25
2023-04-26T00:03:51.794Z,6.37
2023-04-26T00:06:54.710Z,6.42
2023-04-26T00:09:57.179Z,6.19
2023-04-26T00:12:59.699Z,6.42
2023-04-26T00:16:02.114Z,6.48
2023-04-26T00:19:04.797Z,6.44
2023-04-26T00:22:08.742Z,6.48
2023-04-26T00:25:11.330Z,6.49
2023-04-26T00:28:13.830Z,6.26
2023-04-26T00:31:17.601Z,6.32
2023-04-26T00:34:20.077Z,6.27
2023-04-26T00:37:23.371Z,6.35
2023-04-26T00:40:26.191Z,6.40
2023-04-26T00:43:28.738Z,6.54
2023-04-26T00:46:31.954Z,6.52
2023-04-26T00:49:34.663Z,6.40
2023-04-26T00:52:37.619Z,5.97
2023-04-26T00:55:41.444Z,5.88
2023-04-26T00:58:44.376Z,5.66
2023-04-26T01:01:48.524Z,5.89
2023-04-26T01:04:51.702Z,6.03
2023-04-26T01:07:54.254Z,6.10
2023-04-26T01:10:57.428Z,5.90
2023-04-26T01:14:00.039Z,5.81
2023-04-26T01:17:03.630Z,5.80
2023-04-26T01:20:08.942Z,5.60
2023-04-26T01:23:11.840Z,5.63
2023-04-26T01:26:14.453Z,5.88
2023-04-26T01:29:21.676Z,6.05
2023-04-26T01:32:24.252Z,5.78
2023-04-26T01:35:26.818Z,6.08
2023-04-26T01:38:29.322Z,5.85
2023-04-26T01:41:32.773Z,5.88
2023-04-26T01:44:36.420Z,5.61
2023-04-26T01:47:38.880Z,5.60
2023-04-26T01:50:41.283Z,5.47
2023-04-26T01:53:43.721Z,5.65
2023-04-26T01:56:46.252Z,5.78
2023-04-26T01:59:48.789Z,5.73
2023-04-26T02:02:54.834Z,5.51
2023-04-26T02:05:58.892Z,5.46
2023-04-26T02:09:02.204Z,5.33
2023-04-26T02:12:04.623Z,5.22
2023-04-26T02:15:08.938Z,5.29
2023-04-26T02:18:11.681Z,5.32
2023-04-26T02:21:17.773Z,5.21
2023-04-26T02:24:20.309Z,5.03
2023-04-26T02:27:22.732Z,4.83
2023-04-26T02:30:25.069Z,5.01
2023-04-26T02:33:27.622Z,5.11
2023-04-26T02:36:30.420Z,4.96
2023-04-26T02:39:33.046Z,4.86
2023-04-26T02:42:35.794Z,4.96
2023-04-26T02:45:43.277Z,4.88
2023-04-26T02:48:47.737Z,4.68
2023-04-26T02:51:50.170Z,4.75
2023-04-26T02:54:52.725Z,4.67
2023-04-26T02:57:55.178Z,4.65
2023-04-26T03:01:01.036Z,4.57
2023-04-26T03:04:05.170Z,4.52
2023-04-26T03:07:09.568Z,4.23
2023-04-26T03:10:12.760Z,4.21
2023-04-26T03:13:16.558Z,4.22
2023-04-26T03:16:20.514Z,4.46
2023-04-26T03:19:23.132Z,4.25
2023-04-26T03:22:25.898Z,4.32
2023-04-26T03:25:28.271Z,4.23
2023-04-26T03:28:31.081Z,4.34
2023-04-26T03:31:33.663Z,4.25
2023-04-26T03:34:36.078Z,4.29
2023-04-26T03:37:39.886Z,4.38
2023-04-26T03:40:45.077Z,4.14
2023-04-26T03:43:47.815Z,4.32
2023-04-26T03:46:50.217Z,4.48
2023-04-26T03:49:52.943Z,4.50
2023-04-26T03:52:55.431Z,4.52
2023-04-26T03:55:58.237Z,4.72
2023-04-26T03:59:01.222Z,4.79
2023-04-26T04:02:04.120Z,4.83
2023-04-26T04:05:08.316Z,5.14
2023-04-26T04:08:12.112Z,5.15
2023-04-26T04:11:15.415Z,5.19
2023-04-26T04:14:19.195Z,5.12
2023-04-26T04:17:22.289Z,5.34
2023-04-26T04:20:25.505Z,5.45
2023-04-26T04:23:30.831Z,5.59
2023-04-26T04:26:34.266Z,5.83
2023-04-26T04:29:36.688Z,5.81
2023-04-26T04:32:40.233Z,6.20
2023-04-26T04:35:43.443Z,6.10
2023-04-26T04:38:45.903Z,6.21
2023-04-26T04:41:51.418Z,6.27
2023-04-26T04:44:55.167Z,6.23
2023-04-26T04:47:58.288Z,6.37
2023-04-26T04:51:02.471Z,6.58
2023-04-26T04:54:13.527Z,6.50
2023-04-26T04:57:16.859Z,6.76
2023-04-26T05:00:21.177Z,6.56
2023-04-26T05:03:28.797Z,6.78
2023-04-26T05:06:34.344Z,6.68
2023-04-26T05:09:37.227Z,6.86
2023-04-26T05:12:42.083Z,6.88
2023-04-26T05:15:44.427Z,6.78
2023-04-26T05:18:47.424Z,7.10
2023-04-26T05:21:50.070Z,7.27
2023-04-26T05:24:52.877Z,7.12
2023-04-26T05:27:55.395Z,7.20
2023-04-26T05:31:21.612Z,7.41
2023-04-26T05:34:47.491Z,7.46
2023-04-26T05:37:52.398Z,7.53
2023-04-26T05:40:57.326Z,7.43
2023-04-26T05:43:59.920Z,7.57
2023-04-26T05:47:02.481Z,7.74
2023-04-26T05:50:05.366Z,7.82
2023-04-26T05:53:08.796Z,8.13
2023-04-26T05:56:11.361Z,8.55
2023-04-26T05:59:13.908Z,8.76
2023-04-26T06:02:16.513Z,8.97
2023-04-26T06:05:19.231Z,9.37
2023-04-26T06:08:21.876Z,9.69
2023-04-26T06:11:26.817Z,9.70
2023-04-26T06:14:30.662Z,9.71
2023-04-26T06:17:37.789Z,9.65
2023-04-26T06:20:40.415Z,9.72
2023-04-26T06:23:43.258Z,9.74
2023-04-26T06:26:45.631Z,9.90
2023-04-26T06:29:48.481Z,10.24
2023-04-26T06:32:51.930Z,10.35
2023-04-26T06:35:54.402Z,10.41
2023-04-26T06:38:56.887Z,10.29
2023-04-26T06:42:03.583Z,10.22
2023-04-26T06:45:24.259Z,10.34
2023-04-26T06:48:27.415Z,10.12
2023-04-26T06:51:29.902Z,10.32
2023-04-26T06:54:35.931Z,10.54
2023-04-26T06:57:39.044Z,10.42
2023-04-26T07:00:41.498Z,10.57
2023-04-26T07:03:43.989Z,10.42
2023-04-26T07:06:46.974Z,10.51
2023-04-26T07:09:49.900Z,10.26
2023-04-26T07:12:52.445Z,10.14
2023-04-26T07:15:55.314Z,10.42
2023-04-26T07:19:01.063Z,10.26
2023-04-26T07:22:04.745Z,10.12
2023-04-26T07:25:07.528Z,10.34
2023-04-26T07:28:09.987Z,10.35
2023-04-26T07:31:12.742Z,10.48
2023-04-26T07:34:15.127Z,10.49
2023-04-26T07:37:17.522Z,10.88
2023-04-26T07:40:22.752Z,11.23
2023-04-26T07:43:26.563Z,11.84
2023-04-26T07:46:29.014Z,12.05
2023-04-26T07:49:31.731Z,12.29
2023-04-26T07:52:34.623Z,11.77
2023-04-26T07:55:39.715Z,11.84
2023-04-26T07:58:42.232Z,11.85
2023-04-26T08:01:44.716Z,11.54
2023-04-26T08:04:50.118Z,11.92
2023-04-26T08:07:52.857Z,12.04
2023-04-26T08:10:55.874Z,13.56
2023-04-26T08:13:58.296Z,15.29
2023-04-26T08:17:02.001Z,15.29
2023-04-26T08:20:06.100Z,15.31
2023-04-26T08:23:09.408Z,14.67
2023-04-26T08:26:11.879Z,14.84
2023-04-26T08:29:15.015Z,15.94
2023-04-26T08:32:17.530Z,18.12
2023-04-26T08:35:27.824Z,19.39
2023-04-26T08:38:30.792Z,19.79
2023-04-26T08:41:37.965Z,20.37
2023-04-26T08:44:43.468Z,21.23
2023-04-26T08:47:50.379Z,21.46
2023-04-26T08:50:54.145Z,20.80
2023-04-26T08:53:58.109Z,21.11
2023-04-26T08:57:01.836Z,21.38
2023-04-26T09:00:14.579Z,21.71
2023-04-26T09:03:17.049Z,21.87
2023-04-26T09:06:19.842Z,21.21
2023-04-26T09:09:24.402Z,21.45
2023-04-26T09:12:27.228Z,21.61
2023-04-26T09:15:29.783Z,22.44
2023-04-26T09:18:33.865Z,23.46
2023-04-26T09:21:44.923Z,23.18
2023-04-26T09:24:52.337Z,24.50
2023-04-26T09:27:54.862Z,23.92
2023-04-26T09:30:57.353Z,23.20
2023-04-26T09:34:00.940Z,21.84
2023-04-26T09:37:03.344Z,19.26
2023-04-26T09:40:18.117Z,19.19
2023-04-26T09:43:22.703Z,19.15
2023-04-26T09:46:25.247Z,18.56
2023-04-26T09:49:30.678Z,18.44
2023-04-26T09:52:43.376Z,18.94
2023-04-26T09:55:45.837Z,18.02
2023-04-26T09:58:48.693Z,17.23
2023-04-26T10:01:51.134Z,17.13
2023-04-26T10:04:56.205Z,16.63
2023-04-26T10:07:58.795Z,16.81
2023-04-26T10:11:04.526Z,16.64
2023-04-26T10:14:07.334Z,16.19
2023-04-26T10:17:11.773Z,16.76
2023-04-26T10:20:17.795Z,16.40
2023-04-26T10:23:25.575Z,16.52
2023-04-26T10:26:51.927Z,17.14
2023-04-26T10:29:54.391Z,16.79
2023-04-26T10:32:58.268Z,17.05
2023-04-26T10:36:12.766Z,16.98
2023-04-26T10:39:21.910Z,16.54
2023-04-26T10:42:30.834Z,15.89
2023-04-26T10:45:33.549Z,16.87
2023-04-26T10:48:38.001Z,20.54
2023-04-26T10:52:12.564Z,23.15
2023-04-26T10:55:38.387Z,21.75
2023-04-26T10:58:41.640Z,23.39
2023-04-26T11:01:44.942Z,24.04
2023-04-26T11:04:52.263Z,23.97
2023-04-26T11:08:24.904Z,25.26
2023-04-26T11:11:29.812Z,24.66
2023-04-26T11:14:35.724Z,24.97
2023-04-26T11:17:38.399Z,24.95
2023-04-26T11:20:41.134Z,25.93
2023-04-26T11:23:52.716Z,24.06
2023-04-26T11:26:55.166Z,21.35
2023-04-26T11:29:57.636Z,19.72
2023-04-26T11:33:01.342Z,19.24
2023-04-26T11:36:04.294Z,19.25
2023-04-26T11:39:07.167Z,18.51
2023-04-26T11:42:12.067Z,18.12
2023-04-26T11:45:17.646Z,17.90
2023-04-26T11:48:20.359Z,17.46
2023-04-26T11:51:24.088Z,17.20
2023-04-26T11:54:35.886Z,17.08
2023-04-26T11:57:41.075Z,16.67
2023-04-26T12:01:00.449Z,17.19
2023-04-26T12:04:03.041Z,17.57
2023-04-26T12:07:05.664Z,18.15
2023-04-26T12:10:17.971Z,18.51
2023-04-26T12:13:21.063Z,17.76
2023-04-26T12:16:26.600Z,17.34
2023-04-26T12:19:40.945Z,16.86
2023-04-26T12:23:16.959Z,16.71
2023-04-26T12:26:20.551Z,17.31
2023-04-26T12:29:23.215Z,17.87
2023-04-26T12:32:25.810Z,17.84
2023-04-26T12:35:28.239Z,17.24
2023-04-26T12:38:30.874Z,17.25
2023-04-26T12:41:33.933Z,17.53
2023-04-26T12:44:36.680Z,17.23
2023-04-26T12:47:39.628Z,17.30
2023-04-26T12:50:42.392Z,17.23
2023-04-26T12:53:44.776Z,16.95
2023-04-26T12:56:48.596Z,16.38
2023-04-26T12:59:51.057Z,15.76
2023-04-26T13:02:53.608Z,15.72
2023-04-26T13:05:56.146Z,15.46
2023-04-26T13:08:58.853Z,15.27
2023-04-26T13:12:01.264Z,15.27
2023-04-26T13:15:04.222Z,15.30
2023-04-26T13:18:06.743Z,15.04
2023-04-26T13:21:09.267Z,15.24
2023-04-26T13:24:11.912Z,15.45
2023-04-26T13:27:14.622Z,15.62
2023-04-26T13:30:18.371Z,15.25
2023-04-26T13:33:21.473Z,15.20
2023-04-26T13:36:24.062Z,15.45
2023-04-26T13:39:28.784Z,15.57
2023-04-26T13:42:32.547Z,15.73
2023-04-26T13:45:36.038Z,15.70
2023-04-26T13:48:38.473Z,15.37
2023-04-26T13:51:41.786Z,15.12
2023-04-26T13:54:44.218Z,14.99
2023-04-26T13:57:46.725Z,14.92
2023-04-26T14:00:49.311Z,14.46
2023-04-26T14:03:54.226Z,14.44
2023-04-26T14:06:58.633Z,14.22
2023-04-26T14:10:01.436Z,14.17
2023-04-26T14:13:04.279Z,13.89
2023-04-26T14:16:07.126Z,13.99
2023-04-26T14:19:09.626Z,13.94
2023-04-26T14:22:13.054Z,13.91
2023-04-26T14:25:15.850Z,14.07
2023-04-26T14:28:18.574Z,14.31
2023-04-26T14:31:22.660Z,14.23
2023-04-26T14:34:26.323Z,14.10
2023-04-26T14:37:28.875Z,14.04
2023-04-26T14:40:31.969Z,13.95
2023-04-26T14:43:34.472Z,13.88
2023-04-26T14:46:37.432Z,13.94
2023-04-26T14:49:39.790Z,13.83
2023-04-26T14:52:42.276Z,13.97
2023-04-26T14:55:44.731Z,13.77
2023-04-26T14:58:47.131Z,13.65
2023-04-26T15:01:50.247Z,13.43
2023-04-26T15:04:52.966Z,13.56
2023-04-26T15:07:55.554Z,13.13
2023-04-26T15:10:58.041Z,13.09
2023-04-26T15:14:00.544Z,13.24
2023-04-26T15:17:03.110Z,13.18
2023-04-26T15:20:06.458Z,12.88
2023-04-26T15:23:09.027Z,12.72
2023-04-26T15:26:11.622Z,12.74
2023-04-26T15:29:14.241Z,12.58
2023-04-26T15:32:16.674Z,12.47
2023-04-26T15:35:19.163Z,12.28
2023-04-26T15:38:22.066Z,12.17
2023-04-26T15:41:24.474Z,12.25
2023-04-26T15:44:26.963Z,12.19
2023-04-26T15:47:29.441Z,12.16
2023-04-26T15:50:34.362Z,11.92
2023-04-26T15:53:41.346Z,11.92
2023-04-26T15:56:48.598Z,11.69
2023-04-26T15:59:51.244Z,11.71
2023-04-26T16:02:54.027Z,11.79
2023-04-26T16:05:56.613Z,11.65
2023-04-26T16:09:02.232Z,11.67
2023-04-26T16:12:05.599Z,11.44
2023-04-26T16:15:12.203Z,11.38
2023-04-26T16:18:14.765Z,11.23
2023-04-26T16:21:17.346Z,11.46
2023-04-26T16:24:20.166Z,11.61
2023-04-26T16:27:22.625Z,11.38
2023-04-26T16:30:25.458Z,11.54
2023-04-26T16:33:28.098Z,11.41
2023-04-26T16:36:31.583Z,11.07
2023-04-26T16:39:36.025Z,11.07
2023-04-26T16:42:42.074Z,11.04
2023-04-26T16:45:44.517Z,10.99
2023-04-26T16:48:47.561Z,10.90
2023-04-26T16:51:56.375Z,10.75
2023-04-26T16:54:59.283Z,10.57
2023-04-26T16:58:01.980Z,10.45
2023-04-26T17:01:04.810Z,10.61
2023-04-26T17:04:08.230Z,10.64
2023-04-26T17:07:12.932Z,10.49
2023-04-26T17:10:15.376Z,10.47
2023-04-26T17:13:18.016Z,10.33
2023-04-26T17:16:21.037Z,10.27
2023-04-26T17:19:24.208Z,10.35
2023-04-26T17:22:26.766Z,10.41
2023-04-26T17:25:29.174Z,10.42
2023-04-26T17:28:33.034Z,10.25
2023-04-26T17:31:35.499Z,10.32
2023-04-26T17:34:38.804Z,10.18
2023-04-26T17:37:46.260Z,9.98
2023-04-26T17:40:53.626Z,10.16
2023-04-26T17:43:56.185Z,10.01
2023-04-26T17:46:58.508Z,9.97
2023-04-26T17:50:00.991Z,9.98
2023-04-26T17:53:05.453Z,9.84
2023-04-26T17:56:10.032Z,9.92
2023-04-26T17:59:13.019Z,9.66
2023-04-26T18:02:15.906Z,9.95
2023-04-26T18:05:18.541Z,9.81
2023-04-26T18:08:21.467Z,9.96
2023-04-26T18:11:24.135Z,9.96
2023-04-26T18:14:27.947Z,9.74
2023-04-26T18:17:30.431Z,9.81
2023-04-26T18:20:35.746Z,9.70
2023-04-26T18:23:38.701Z,9.54
2023-04-26T18:26:41.528Z,9.46
2023-04-26T18:29:44.212Z,9.83
2023-04-26T18:32:47.044Z,9.62
2023-04-26T18:35:50.498Z,9.80
2023-04-26T18:38:53.040Z,9.46
2023-04-26T18:41:55.408Z,9.48
2023-04-26T18:44:58.034Z,9.35
2023-04-26T18:48:00.721Z,9.26
2023-04-26T18:51:04.077Z,9.44
2023-04-26T18:54:06.499Z,9.48
2023-04-26T18:57:10.703Z,9.75
2023-04-26T19:00:14.161Z,9.59
2023-04-26T19:03:17.287Z,9.47
2023-04-26T19:06:20.190Z,9.42
2023-04-26T19:09:23.075Z,9.20
2023-04-26T19:12:26.429Z,9.42
2023-04-26T19:15:29.443Z,9.15
2023-04-26T19:18:32.406Z,8.75
2023-04-26T19:21:35.165Z,9.19
2023-04-26T19:24:38.707Z,9.16
2023-04-26T19:27:41.522Z,9.05
2023-04-26T19:30:44.347Z,8.92
2023-04-26T19:33:47.038Z,9.26
2023-04-26T19:36:50.313Z,9.23
2023-04-26T19:39:52.988Z,9.33
2023-04-26T19:42:55.420Z,9.30
2023-04-26T19:45:58.384Z,9.14
2023-04-26T19:49:01.003Z,9.09
2023-04-26T19:52:03.523Z,9.20
2023-04-26T19:55:06.348Z,9.28
2023-04-26T19:58:12.952Z,9.11
2023-04-26T20:01:16.303Z,9.09
2023-04-26T20:04:19.407Z,8.99
2023-04-26T20:07:22.427Z,8.80
2023-04-26T20:10:25.396Z,8.79
2023-04-26T20:13:28.881Z,8.80
2023-04-26T20:16:31.539Z,8.57
2023-04-26T20:19:34.258Z,8.61
2023-04-26T20:22:37.140Z,8.60
2023-04-26T20:25:39.789Z,8.37
2023-04-26T20:28:42.726Z,8.68
2023-04-26T20:31:45.567Z,8.50
2023-04-26T20:34:48.414Z,8.26
2023-04-26T20:37:51.343Z,8.74
2023-04-26T20:40:54.189Z,8.59
2023-04-26T20:43:56.678Z,8.64
2023-04-26T20:46:59.123Z,8.67
2023-04-26T20:50:01.547Z,8.58
2023-04-26T20:53:07.241Z,8.75
2023-04-26T20:56:09.791Z,8.65
2023-04-26T20:59:12.519Z,8.69
2023-04-26T21:02:15.947Z,8.58
2023-04-26T21:05:18.463Z,8.47
2023-04-26T21:08:20.937Z,8.17
2023-04-26T21:11:23.489Z,8.32
2023-04-26T21:14:26.241Z,8.31
2023-04-26T21:17:28.643Z,8.22
2023-04-26T21:20:31.095Z,7.88
2023-04-26T21:23:33.968Z,8.10
2023-04-26T21:26:36.390Z,8.05
2023-04-26T21:29:39.190Z,8.20
2023-04-26T21:32:41.909Z,8.00
2023-04-26T21:35:44.311Z,8.01
2023-04-26T21:38:46.949Z,8.09
2023-04-26T21:41:49.936Z,7.93
2023-04-26T21:44:52.614Z,7.88
2023-04-26T21:47:54.972Z,8.05
2023-04-26T21:50:57.651Z,8.09
2023-04-26T21:54:00.053Z,7.91
2023-04-26T21:57:06.588Z,7.99
2023-04-26T22:00:11.969Z,8.18
2023-04-26T22:03:18.573Z,8.12
2023-04-26T22:06:21.530Z,7.57
2023-04-26T22:09:24.296Z,7.89
2023-04-26T22:12:27.632Z,7.98
2023-04-26T22:15:30.150Z,7.92
2023-04-26T22:18:32.602Z,7.98
2023-04-26T22:21:35.090Z,7.94
2023-04-26T22:24:37.564Z,7.98
2023-04-26T22:27:39.997Z,7.98
2023-04-26T22:30:42.661Z,8.10
2023-04-26T22:33:45.073Z,7.90
2023-04-26T22:36:47.840Z,7.57
2023-04-26T22:39:50.398Z,7.83
2023-04-26T22:42:53.917Z,7.80
2023-04-26T22:45:56.380Z,7.45
2023-04-26T22:48:58.785Z,7.74
2023-04-26T22:52:07.997Z,7.67
2023-04-26T22:55:14.348Z,7.67
2023-04-26T22:58:17.922Z,7.66
2023-04-26T23:01:20.513Z,7.58
2023-04-26T23:04:22.934Z,7.42
2023-04-26T23:07:25.415Z,7.49
2023-04-26T23:10:28.662Z,7.47
2023-04-26T23:13:31.043Z,7.28
2023-04-26T23:16:33.871Z,7.16
2023-04-26T23:19:36.622Z,7.26
2023-04-26T23:22:41.848Z,7.16
2023-04-26T23:25:44.338Z,6.99
2023-04-26T23:28:46.839Z,7.17
2023-04-26T23:31:49.460Z,7.03
2023-04-26T23:34:52.391Z,7.10
2023-04-26T23:37:54.974Z,7.12
2023-04-26T23:40:57.528Z,7.15
2023-04-26T23:43:59.923Z,7.06
2023-04-26T23:47:02.401Z,6.88
2023-04-26T23:50:05.242Z,6.57
2023-04-26T23:53:08.468Z,6.87
2023-04-26T23:56:10.955Z,6.85
2023-04-26T23:59:14.276Z,6.86
